PWSweather.com
Personal Weather Stations
Station Observations
BREEJEDURP
'sGravenzande, WestlandNL

'sGravenzandeWestlandNL

Lat: 52.00095260000001, Lon: 4.174256600000035

Elevation: 3

Station Type: Davis Vantage Pro2 Plus

Latest ConditionsUpdated 3:09:00 PM GMT+01:01 Wednesday, Apr 25, 2018
Currently Today's Max Today's Min Today's Average
Temperature 57.0°F13.9°C 57.0°F13.9°C 49.5°F9.7°C 52.5°F11.4°C
Dew Point 45.8°F7.7°C 51.1°F10.6°C 45.2°F7.3°C 47.7°F8.7°C
Winds 8.0 mph SW12.9 kmh SW 18.0 mph WSW29.0 kmh WSW - 11.2 mph 18.0 kmh
Wind Gusts 15.0 mph24.1 kmh 27.0 mph43.5 kmh - -
Humidity 66% 93% 66% 84%
Pressure 29.89 in1012.2 mb 29.89 in1012.2 mb 29.72 in1006.4 mb -
Precipitation - 0.02 in0.5 mm - -
Hour Temp Dew Point Humidity Winds Wind Gusts Pressure Precip Precip Rate Daily Precip Total
03:09 PM 57.0°F13.9°C 45.8°F7.7°C 66% 8.0 mph SW12.9 kmh SW 15.0 mph24.1 kmh 29.89 in1012.2 mb 0.00 in0.0 mm 0.00 in0.0 mm 0.02 in0.5 mm
03:04 PM 57.0°F13.9°C 45.8°F7.7°C 66% 8.0 mph S12.9 kmh S 17.0 mph27.4 kmh 29.89 in1012.2 mb 0.00 in0.0 mm 0.00 in0.0 mm 0.02 in0.5 mm
03:00 PM 57.0°F13.9°C 45.8°F7.7°C 66% 9.0 mph SW14.5 kmh SW 15.0 mph24.1 kmh 29.89 in1012.2 mb 0.00 in0.0 mm 0.00 in0.0 mm 0.02 in0.5 mm
01:09 PM 54.5°F12.5°C 46.7°F8.2°C 75% 7.0 mph WSW11.3 kmh WSW 11.0 mph17.7 kmh 29.89 in1012.2 mb 0.00 in0.0 mm 0.00 in0.0 mm 0.02 in0.5 mm
01:05 PM 54.1°F12.3°C 46.7°F8.2°C 76% 11.0 mph W17.7 kmh W 18.0 mph29.0 kmh 29.89 in1012.2 mb 0.00 in0.0 mm 0.00 in0.0 mm 0.02 in0.5 mm
01:00 PM 54.1°F12.3°C 46.4°F8.0°C 75% 11.0 mph W17.7 kmh W 16.0 mph25.7 kmh 29.89 in1012.2 mb 0.00 in0.0 mm 0.00 in0.0 mm 0.02 in0.5 mm
11:09 AM 52.3°F11.3°C 45.7°F7.6°C 78% 13.0 mph WSW20.9 kmh WSW 19.0 mph30.6 kmh 29.89 in1012.2 mb 0.00 in0.0 mm 0.00 in0.0 mm 0.02 in0.5 mm
11:05 AM 52.3°F11.3°C 45.7°F7.6°C 78% 11.0 mph W17.7 kmh W 15.0 mph24.1 kmh 29.89 in1012.2 mb 0.00 in0.0 mm 0.00 in0.0 mm 0.02 in0.5 mm
11:00 AM 52.5°F11.4°C 45.2°F7.3°C 76% 12.0 mph WNW19.3 kmh WNW 19.0 mph30.6 kmh 29.89 in1012.2 mb 0.00 in0.0 mm 0.00 in0.0 mm 0.02 in0.5 mm
09:10 AM 49.8°F9.9°C 47.0°F8.3°C 90% 10.0 mph W16.1 kmh W 15.0 mph24.1 kmh 29.85 in1010.8 mb 0.00 in0.0 mm 0.00 in0.0 mm 0.02 in0.5 mm
09:05 AM 49.8°F9.9°C 47.3°F8.5°C 91% 9.0 mph W14.5 kmh W 13.0 mph20.9 kmh 29.85 in1010.8 mb 0.00 in0.0 mm 0.00 in0.0 mm 0.02 in0.5 mm
08:59 AM 49.5°F9.7°C 46.9°F8.3°C 91% 8.0 mph W12.9 kmh W 12.0 mph19.3 kmh 29.85 in1010.8 mb 0.00 in0.0 mm 0.00 in0.0 mm 0.02 in0.5 mm
07:09 AM 49.6°F9.8°C 46.8°F8.2°C 90% 7.0 mph WNW11.3 kmh WNW 11.0 mph17.7 kmh 29.81 in1009.5 mb 0.00 in0.0 mm 0.00 in0.0 mm 0.02 in0.5 mm
07:05 AM 49.6°F9.8°C 46.5°F8.1°C 89% 11.0 mph WNW17.7 kmh WNW 14.0 mph22.5 kmh 29.81 in1009.5 mb 0.00 in0.0 mm 0.00 in0.0 mm 0.02 in0.5 mm
07:00 AM 49.6°F9.8°C 46.5°F8.1°C 89% 9.0 mph WNW14.5 kmh WNW 13.0 mph20.9 kmh 29.80 in1009.1 mb 0.00 in0.0 mm 0.00 in0.0 mm 0.02 in0.5 mm
05:09 AM 51.3°F10.7°C 49.0°F9.4°C 92% 11.0 mph W17.7 kmh W 17.0 mph27.4 kmh 29.75 in1007.5 mb 0.00 in0.0 mm 0.00 in0.0 mm 0.02 in0.5 mm
05:05 AM 51.4°F10.8°C 49.2°F9.6°C 92% 10.0 mph W16.1 kmh W 13.0 mph20.9 kmh 29.75 in1007.5 mb 0.00 in0.0 mm 0.00 in0.0 mm 0.02 in0.5 mm
05:00 AM 51.6°F10.9°C 49.4°F9.7°C 92% 13.0 mph W20.9 kmh W 18.0 mph29.0 kmh 29.75 in1007.5 mb 0.00 in0.0 mm 0.00 in0.0 mm 0.02 in0.5 mm
03:09 AM 51.6°F10.9°C 49.7°F9.8°C 93% 17.0 mph SW27.4 kmh SW 25.0 mph40.2 kmh 29.72 in1006.4 mb 0.00 in0.0 mm 0.00 in0.0 mm 0.02 in0.5 mm
03:05 AM 51.6°F10.9°C 49.7°F9.8°C 93% 17.0 mph SW27.4 kmh SW 27.0 mph43.5 kmh 29.72 in1006.4 mb 0.01 in0.3 mm 0.10 in2.5 mm 0.02 in0.5 mm
03:00 AM 51.6°F10.9°C 49.7°F9.8°C 93% 18.0 mph WSW29.0 kmh WSW 25.0 mph40.2 kmh 29.72 in1006.4 mb 0.00 in0.0 mm 0.00 in0.0 mm 0.01 in0.3 mm
01:09 AM 54.3°F12.4°C 51.1°F10.6°C 89% 10.0 mph SSW16.1 kmh SSW 18.0 mph29.0 kmh 29.74 in1007.1 mb 0.00 in0.0 mm 0.00 in0.0 mm 0.00 in0.0 mm
01:05 AM 54.3°F12.4°C 50.8°F10.4°C 88% 12.0 mph SW19.3 kmh SW 20.0 mph32.2 kmh 29.74 in1007.1 mb 0.00 in0.0 mm 0.00 in0.0 mm 0.00 in0.0 mm
12:59 AM 54.5°F12.5°C 51.0°F10.6°C 88% 17.0 mph WSW27.4 kmh WSW 26.0 mph41.8 kmh 29.74 in1007.1 mb 0.00 in0.0 mm 0.00 in0.0 mm 0.00 in0.0 mm